ADDS METAR Data INFO
IDs: Format: Raw Decoded Include TAF

Data at: 0140 UTC 26 Feb 2018

KPVC 260135Z AUTO 06009KT 2 1/2SM BR OVC002 06/05 A2990 RMK AO2 RAE16 P0000
KPVC 260110Z AUTO 07009KT 3SM -RA BR OVC004 06/05 A2990 RMK AO2 P0000
KPVC 260056Z AUTO 07010KT 2 1/2SM -RA BR OVC004 06/05 A2990 RMK AO2 SLP126 P0000 T00560050
KPVC 252356Z AUTO 07011KT 4SM -RA BR OVC004 06/05 A2992 RMK AO2 SLP130 P0001 60020 T00560050 10061 20039 58016
KPVC 252329Z AUTO 07010KT 3SM -RA BR OVC004 06/05 A2993 RMK AO2 P0001
KPVC 252256Z AUTO 06006KT 2SM -RA BR OVC004 06/05 A2995 RMK AO2 CIG 003V008 SLP140 P0006 T00560050
KPVC 252248Z AUTO 06009KT 2 1/2SM -RA BR OVC006 06/05 A2995 RMK AO2 CIG 003V008 PRESFR P0006
KPVC 252207Z AUTO 12016G21KT 1 3/4SM -RA BR OVC006 06/05 A2995 RMK AO2 P0001
KPVC 252156Z AUTO 11014G23KT 4SM -RA BR OVC006 06/05 A2996 RMK AO2 PK WND 11027/2104 RAE33B52 PRESRR SLP146 P0000 T00560050
KPVC 252056Z AUTO 11014G25KT 5SM -RA BR OVC006 05/04 A2995 RMK AO2 SLP141 P0004 60013 T00500044 58049
KPVC 251956Z AUTO 11016G25KT 6SM -RA BR OVC006 05/04 A3001 RMK AO2 PK WND 11027/1940 SLP163 P0005 T00500044
KPVC 251856Z AUTO 10014G25KT 4SM -RA BR OVC006 04/04 A3005 RMK AO2 SLP175 P0004 T00440039
KPVC 251756Z AUTO 11015G22KT 5SM -RA BR BKN008 OVC012 04/03 A3009 RMK AO2 CIG 006V010 PRESFR SLP190 P0007 60027 T00390033 10044 20033 58042
KPVC 251720Z AUTO 11015KT 6SM -RA BR BKN010 OVC028 04/03 A3013 RMK AO2 CIG 008V012 P0003
KPVC 251701Z AUTO 11011G21KT 5SM -RA BR BKN008 BKN020 OVC037 04/03 A3015 RMK AO2 CIG 007V012 PRESFR P0001
KPVC 251656Z AUTO 11014G20KT 5SM RA BR BKN010 OVC037 04/03 A3016 RMK AO2 CIG 007V012 PRESFR SLP213 P0007 T00390033
KPVC 251639Z AUTO 11013G20KT 6SM -RA BR FEW007 BKN016 OVC037 04/03 A3019 RMK AO2 P0005
KPVC 251618Z AUTO 11010KT 5SM RA BR BKN011 BKN019 OVC037 04/03 A3021 RMK AO2 P0003
KPVC 251604Z AUTO 11008G15KT 4SM RA BR BKN009 OVC017 04/03 A3023 RMK AO2 CIG 007V014 P0002
KPVC 251556Z AUTO 14009KT 100V160 4SM RA BR OVC011 04/03 A3025 RMK AO2 SLP241 P0006 T00390028
KPVC 251456Z AUTO 11011G16KT 8SM -RA BKN013 OVC046 04/03 A3022 RMK AO2 SLP232 P0001 60007 T00390028 56018
KPVC 251450Z AUTO 11010KT 7SM -RA BKN013 BKN017 OVC048 04/03 A3023 RMK AO2 P0001
KPVC 251356Z AUTO 12008KT 9SM -RA FEW041 OVC048 04/02 A3026 RMK AO2 SLP246 P0004 T00390022
KPVC 251256Z AUTO 10012KT 8SM -RA FEW034 BKN050 03/02 A3027 RMK AO2 SLP250 P0002 T00330017
KPVC 251056Z AUTO 09010KT 10SM BKN070 04/01 A3032 RMK AO2 PRESRR SLP266 T00440006
KPVC 250956Z AUTO 09010KT 10SM OVC075 04/01 A3030 RMK AO2 SLP260 T00390006
KPVC 250856Z AUTO 08013KT 10SM CLR 04/01 A3028 RMK AO2 SLP253 T00390006 58007
KPVC 250756Z AUTO 07012G18KT 10SM FEW120 04/01 A3030 RMK AO2 SLP261 T00440011
KPVC 250656Z AUTO 06010KT 10SM CLR 04/01 A3030 RMK AO2 SLP261 T00440011
KPVC 250556Z AUTO 07009KT 10SM CLR 04/01 A3030 RMK AO2 SLP260 T00440011 10061 20039 53015
KPVC 250356Z AUTO 06008KT 10SM CLR 04/02 A3026 RMK AO2 SLP247 T00440022
KPVC 250256Z AUTO 01006KT 10SM CLR 05/02 A3026 RMK AO2 SLP246 T00500022 53020
KPVC 250156Z AUTO 35004KT 10SM OVC045 06/03 A3025 RMK AO2 SLP242 T00560028
KPVC 250056Z AUTO 14003KT 10SM FEW047 05/04 A3018 RMK AO2 PRESFR SLP219 T00500044
KPVC 242356Z AUTO 00000KT 10SM FEW047 SCT100 06/04 A3020 RMK AO2 SLP225 60002 T00560044 10100 20050 51023
KPVC 242256Z AUTO 00000KT 10SM FEW085 06/04 A3017 RMK AO2 SLP217 T00560044
KPVC 242156Z AUTO 05003KT 10SM FEW070 BKN085 07/04 A3018 RMK AO2 RAE07 SLP220 P0000 T00670044
KPVC 242056Z AUTO 03006KT 10SM -RA FEW028 SCT035 BKN049 07/05 A3013 RMK AO2 RAB04 SLP202 P0002 60002 T00720050 50013
KPVC 241956Z AUTO 02006KT 10SM FEW090 07/03 A3013 RMK AO2 SLP204 T00720033
KPVC 241856Z AUTO 01006KT 10SM BKN110 08/03 A3010 RMK AO2 SLP191 T00830033
KPVC 241756Z AUTO 33007KT 10SM CLR 10/04 A3009 RMK AO2 SLP190 T01000039 10100 20050 58005
KPVC 241656Z AUTO 34007KT 10SM CLR 09/04 A3010 RMK AO2 SLP193 T00890039
KPVC 241556Z AUTO 30008KT 10SM CLR 09/04 A3010 RMK AO2 SLP192 T00890044
KPVC 241456Z AUTO 26009KT 10SM CLR 09/06 A3011 RMK AO2 SLP194 T00890056 51012
KPVC 241356Z AUTO 25010KT 10SM CLR 07/06 A3010 RMK AO2 SLP193 T00720056